sensor_id;sensor_type;location;lat;lon;timestamp;pressure;altitude;pressure_sealevel;temperature;humidity
54870;BME280;40756;-37.950;145.008;2022-10-16T00:01:53;102046.54;;;16.21;45.47
54870;BME280;40756;-37.950;145.008;2022-10-16T00:04:22;102046.94;;;15.46;45.21
54870;BME280;40756;-37.950;145.008;2022-10-16T00:06:52;102046.98;;;16.03;44.02
54870;BME280;40756;-37.950;145.008;2022-10-16T00:09:21;102046.28;;;16.05;45.25
54870;BME280;40756;-37.950;145.008;2022-10-16T00:11:51;102044.16;;;16.18;44.55
54870;BME280;40756;-37.950;145.008;2022-10-16T00:14:21;102041.51;;;15.67;44.64
54870;BME280;40756;-37.950;145.008;2022-10-16T00:16:50;102042.66;;;15.22;46.33
54870;BME280;40756;-37.950;145.008;2022-10-16T00:19:20;102041.39;;;16.29;44.21
54870;BME280;40756;-37.950;145.008;2022-10-16T00:21:49;102042.88;;;15.97;42.86
54870;BME280;40756;-37.950;145.008;2022-10-16T00:24:19;102039.42;;;16.07;44.17
54870;BME280;40756;-37.950;145.008;2022-10-16T00:26:50;102039.08;;;16.06;43.99
54870;BME280;40756;-37.950;145.008;2022-10-16T00:29:20;102037.30;;;16.58;43.99
54870;BME280;40756;-37.950;145.008;2022-10-16T00:31:50;102031.72;;;16.32;41.55
54870;BME280;40756;-37.950;145.008;2022-10-16T00:34:19;102031.15;;;16.31;43.00
54870;BME280;40756;-37.950;145.008;2022-10-16T00:36:49;102029.74;;;16.44;41.62
54870;BME280;40756;-37.950;145.008;2022-10-16T00:39:18;102028.23;;;16.22;41.52
54870;BME280;40756;-37.950;145.008;2022-10-16T00:41:48;102024.32;;;15.86;42.60
54870;BME280;40756;-37.950;145.008;2022-10-16T00:44:52;102025.09;;;15.99;43.02
54870;BME280;40756;-37.950;145.008;2022-10-16T00:47:26;102024.54;;;15.62;43.87
54870;BME280;40756;-37.950;145.008;2022-10-16T00:50:04;102020.26;;;15.92;43.65
54870;BME280;40756;-37.950;145.008;2022-10-16T00:52:36;102015.39;;;16.09;43.24
54870;BME280;40756;-37.950;145.008;2022-10-16T00:55:08;102017.08;;;16.59;40.58
54870;BME280;40756;-37.950;145.008;2022-10-16T00:57:39;102016.72;;;16.38;40.64
54870;BME280;40756;-37.950;145.008;2022-10-16T01:00:14;102015.26;;;17.14;40.36
54870;BME280;40756;-37.950;145.008;2022-10-16T01:02:44;102014.30;;;16.88;39.52
54870;BME280;40756;-37.950;145.008;2022-10-16T01:05:14;102012.32;;;17.29;41.82
54870;BME280;40756;-37.950;145.008;2022-10-16T01:07:52;102011.82;;;16.59;41.32
54870;BME280;40756;-37.950;145.008;2022-10-16T01:10:30;102005.09;;;17.20;40.37
54870;BME280;40756;-37.950;145.008;2022-10-16T01:13:05;102002.81;;;17.37;40.01
54870;BME280;40756;-37.950;145.008;2022-10-16T01:15:40;101999.65;;;17.52;38.02
54870;BME280;40756;-37.950;145.008;2022-10-16T01:18:16;101994.96;;;17.19;38.86
54870;BME280;40756;-37.950;145.008;2022-10-16T01:20:51;101999.23;;;17.14;39.97
54870;BME280;40756;-37.950;145.008;2022-10-16T01:23:38;102003.41;;;17.69;39.04
54870;BME280;40756;-37.950;145.008;2022-10-16T01:26:26;101994.13;;;17.29;39.48
54870;BME280;40756;-37.950;145.008;2022-10-16T01:29:06;101994.87;;;17.78;38.45
54870;BME280;40756;-37.950;145.008;2022-10-16T01:31:41;101993.59;;;17.74;38.06
54870;BME280;40756;-37.950;145.008;2022-10-16T01:34:16;101996.56;;;17.23;38.20
54870;BME280;40756;-37.950;145.008;2022-10-16T01:36:52;102003.68;;;17.63;37.93
54870;BME280;40756;-37.950;145.008;2022-10-16T01:39:28;101997.36;;;17.51;37.43
54870;BME280;40756;-37.950;145.008;2022-10-16T01:42:04;101997.91;;;17.89;38.15
54870;BME280;40756;-37.950;145.008;2022-10-16T01:44:37;101996.71;;;17.88;38.11
54870;BME280;40756;-37.950;145.008;2022-10-16T01:47:09;101998.48;;;17.74;37.71
54870;BME280;40756;-37.950;145.008;2022-10-16T01:49:40;102007.00;;;17.13;40.26
54870;BME280;40756;-37.950;145.008;2022-10-16T01:52:13;102000.90;;;17.70;38.98
54870;BME280;40756;-37.950;145.008;2022-10-16T01:54:47;101997.97;;;17.78;39.06
54870;BME280;40756;-37.950;145.008;2022-10-16T01:57:20;101998.33;;;17.83;39.02
54870;BME280;40756;-37.950;145.008;2022-10-16T01:59:54;101996.68;;;17.87;38.49
54870;BME280;40756;-37.950;145.008;2022-10-16T02:02:28;101995.27;;;18.05;38.47
54870;BME280;40756;-37.950;145.008;2022-10-16T02:05:04;101997.11;;;18.13;38.39
54870;BME280;40756;-37.950;145.008;2022-10-16T02:07:37;101995.70;;;18.21;37.70
54870;BME280;40756;-37.950;145.008;2022-10-16T02:10:07;102000.36;;;17.81;37.89
54870;BME280;40756;-37.950;145.008;2022-10-16T02:12:39;102002.49;;;18.10;39.05
54870;BME280;40756;-37.950;145.008;2022-10-16T02:15:11;102002.96;;;18.59;37.80
54870;BME280;40756;-37.950;145.008;2022-10-16T02:17:40;101997.91;;;18.74;36.84
54870;BME280;40756;-37.950;145.008;2022-10-16T02:20:10;101998.42;;;19.25;37.31
54870;BME280;40756;-37.950;145.008;2022-10-16T02:22:42;101998.21;;;18.22;36.46
54870;BME280;40756;-37.950;145.008;2022-10-16T02:25:17;101997.91;;;18.66;36.31
54870;BME280;40756;-37.950;145.008;2022-10-16T02:27:53;102000.22;;;18.58;35.80
54870;BME280;40756;-37.950;145.008;2022-10-16T02:30:27;101992.06;;;18.91;35.28
54870;BME280;40756;-37.950;145.008;2022-10-16T02:32:59;101995.17;;;18.57;34.60
54870;BME280;40756;-37.950;145.008;2022-10-16T02:35:31;101995.45;;;18.44;33.37
54870;BME280;40756;-37.950;145.008;2022-10-16T02:38:02;101995.55;;;18.60;33.86
54870;BME280;40756;-37.950;145.008;2022-10-16T02:40:32;101992.23;;;18.99;33.40
54870;BME280;40756;-37.950;145.008;2022-10-16T02:43:04;101993.92;;;19.66;32.91
54870;BME280;40756;-37.950;145.008;2022-10-16T02:45:34;101997.67;;;18.44;33.35
54870;BME280;40756;-37.950;145.008;2022-10-16T02:48:04;101999.61;;;18.42;32.89
54870;BME280;40756;-37.950;145.008;2022-10-16T02:50:33;102002.60;;;17.70;33.84
54870;BME280;40756;-37.950;145.008;2022-10-16T02:53:02;101997.84;;;17.67;33.91
54870;BME280;40756;-37.950;145.008;2022-10-16T02:55:32;101998.98;;;17.38;34.03
54870;BME280;40756;-37.950;145.008;2022-10-16T02:58:02;102001.21;;;17.66;34.04
54870;BME280;40756;-37.950;145.008;2022-10-16T03:00:32;102002.24;;;18.25;33.53
54870;BME280;40756;-37.950;145.008;2022-10-16T03:03:01;102000.08;;;19.11;33.66
54870;BME280;40756;-37.950;145.008;2022-10-16T03:05:31;101996.81;;;18.73;31.19
54870;BME280;40756;-37.950;145.008;2022-10-16T03:08:01;101996.16;;;17.84;32.61
54870;BME280;40756;-37.950;145.008;2022-10-16T03:10:30;102001.31;;;17.44;32.20
54870;BME280;40756;-37.950;145.008;2022-10-16T03:12:59;101999.19;;;18.31;32.36
54870;BME280;40756;-37.950;145.008;2022-10-16T03:15:29;101990.89;;;18.75;32.17
54870;BME280;40756;-37.950;145.008;2022-10-16T03:17:59;101997.20;;;17.51;32.83
54870;BME280;40756;-37.950;145.008;2022-10-16T03:20:29;101988.26;;;18.98;32.28
54870;BME280;40756;-37.950;145.008;2022-10-16T03:22:58;101992.13;;;18.53;32.30
54870;BME280;40756;-37.950;145.008;2022-10-16T03:25:28;101987.39;;;18.75;31.42
54870;BME280;40756;-37.950;145.008;2022-10-16T03:27:57;101986.15;;;19.34;32.44
54870;BME280;40756;-37.950;145.008;2022-10-16T03:30:27;101981.18;;;18.06;32.42
54870;BME280;40756;-37.950;145.008;2022-10-16T03:32:56;101982.83;;;18.73;31.79
54870;BME280;40756;-37.950;145.008;2022-10-16T03:35:26;101979.35;;;18.84;31.49
54870;BME280;40756;-37.950;145.008;2022-10-16T03:37:55;101978.03;;;18.96;31.31
54870;BME280;40756;-37.950;145.008;2022-10-16T03:40:25;101975.39;;;19.27;32.12
54870;BME280;40756;-37.950;145.008;2022-10-16T03:42:54;101973.87;;;18.90;31.57
54870;BME280;40756;-37.950;145.008;2022-10-16T03:45:24;101972.10;;;19.13;31.85
54870;BME280;40756;-37.950;145.008;2022-10-16T03:47:53;101975.98;;;19.61;31.56
54870;BME280;40756;-37.950;145.008;2022-10-16T03:50:23;101971.34;;;19.27;30.43
54870;BME280;40756;-37.950;145.008;2022-10-16T03:52:52;101968.53;;;19.68;30.10
54870;BME280;40756;-37.950;145.008;2022-10-16T03:55:22;101969.48;;;20.21;29.37
54870;BME280;40756;-37.950;145.008;2022-10-16T03:57:51;101971.03;;;20.48;29.33
54870;BME280;40756;-37.950;145.008;2022-10-16T04:00:21;101966.84;;;19.60;29.95
54870;BME280;40756;-37.950;145.008;2022-10-16T04:02:51;101962.97;;;20.75;29.33
54870;BME280;40756;-37.950;145.008;2022-10-16T04:05:21;101959.33;;;20.42;28.65
54870;BME280;40756;-37.950;145.008;2022-10-16T04:07:50;101962.49;;;19.76;28.85
54870;BME280;40756;-37.950;145.008;2022-10-16T04:10:20;101966.89;;;18.70;29.38
54870;BME280;40756;-37.950;145.008;2022-10-16T04:12:49;101968.81;;;18.68;30.70
54870;BME280;40756;-37.950;145.008;2022-10-16T04:15:19;101965.89;;;18.22;31.12
54870;BME280;40756;-37.950;145.008;2022-10-16T04:17:48;101965.23;;;18.57;30.76
54870;BME280;40756;-37.950;145.008;2022-10-16T04:20:18;101964.46;;;17.60;32.62
54870;BME280;40756;-37.950;145.008;2022-10-16T04:22:47;101963.98;;;17.84;32.30
54870;BME280;40756;-37.950;145.008;2022-10-16T04:25:17;101965.46;;;18.01;31.71
54870;BME280;40756;-37.950;145.008;2022-10-16T04:27:46;101964.41;;;17.67;32.41
54870;BME280;40756;-37.950;145.008;2022-10-16T04:30:16;101962.83;;;18.57;32.48
54870;BME280;40756;-37.950;145.008;2022-10-16T04:32:49;101964.51;;;18.68;31.53
54870;BME280;40756;-37.950;145.008;2022-10-16T04:35:19;101957.00;;;18.68;31.96
54870;BME280;40756;-37.950;145.008;2022-10-16T04:37:49;101962.35;;;18.68;31.36
54870;BME280;40756;-37.950;145.008;2022-10-16T04:40:18;101966.41;;;18.37;31.25
54870;BME280;40756;-37.950;145.008;2022-10-16T04:42:48;101962.55;;;18.26;31.58
54870;BME280;40756;-37.950;145.008;2022-10-16T04:45:17;101963.95;;;19.38;31.52
54870;BME280;40756;-37.950;145.008;2022-10-16T04:47:47;101959.56;;;18.40;30.95
54870;BME280;40756;-37.950;145.008;2022-10-16T04:50:17;101961.38;;;18.97;30.17
54870;BME280;40756;-37.950;145.008;2022-10-16T04:52:46;101958.38;;;19.06;30.38
54870;BME280;40756;-37.950;145.008;2022-10-16T04:55:15;101953.18;;;19.34;29.90
54870;BME280;40756;-37.950;145.008;2022-10-16T04:57:45;101957.08;;;19.55;29.37
54870;BME280;40756;-37.950;145.008;2022-10-16T05:00:15;101959.91;;;19.15;28.55
54870;BME280;40756;-37.950;145.008;2022-10-16T05:02:45;101959.35;;;19.78;28.42
54870;BME280;40756;-37.950;145.008;2022-10-16T05:05:14;101956.21;;;19.68;30.26
54870;BME280;40756;-37.950;145.008;2022-10-16T05:07:44;101955.64;;;20.13;28.78
54870;BME280;40756;-37.950;145.008;2022-10-16T05:10:13;101957.58;;;19.59;29.70
54870;BME280;40756;-37.950;145.008;2022-10-16T05:12:43;101961.48;;;19.76;30.32
54870;BME280;40756;-37.950;145.008;2022-10-16T05:15:12;101957.90;;;19.21;29.62
54870;BME280;40756;-37.950;145.008;2022-10-16T05:17:42;101961.68;;;19.78;30.09
54870;BME280;40756;-37.950;145.008;2022-10-16T05:20:11;101964.55;;;19.29;29.24
54870;BME280;40756;-37.950;145.008;2022-10-16T05:22:41;101966.17;;;19.40;29.27
54870;BME280;40756;-37.950;145.008;2022-10-16T05:25:10;101969.52;;;18.53;28.73
54870;BME280;40756;-37.950;145.008;2022-10-16T05:27:40;101966.57;;;19.35;29.63
54870;BME280;40756;-37.950;145.008;2022-10-16T05:30:10;101967.59;;;19.26;28.77
54870;BME280;40756;-37.950;145.008;2022-10-16T05:32:40;101961.41;;;19.82;28.40
54870;BME280;40756;-37.950;145.008;2022-10-16T05:35:09;101965.53;;;19.73;28.10
54870;BME280;40756;-37.950;145.008;2022-10-16T05:37:39;101969.41;;;19.26;27.74
54870;BME280;40756;-37.950;145.008;2022-10-16T05:40:09;101967.81;;;19.28;27.73
54870;BME280;40756;-37.950;145.008;2022-10-16T05:42:39;101967.88;;;19.60;28.04
54870;BME280;40756;-37.950;145.008;2022-10-16T05:45:10;101975.33;;;19.16;28.08
54870;BME280;40756;-37.950;145.008;2022-10-16T05:47:39;101972.63;;;19.19;28.82
54870;BME280;40756;-37.950;145.008;2022-10-16T05:50:09;101979.80;;;18.82;29.10
54870;BME280;40756;-37.950;145.008;2022-10-16T05:52:38;101984.21;;;18.59;29.12
54870;BME280;40756;-37.950;145.008;2022-10-16T05:55:08;101980.43;;;18.90;30.39
54870;BME280;40756;-37.950;145.008;2022-10-16T05:57:38;101981.89;;;19.06;28.01
54870;BME280;40756;-37.950;145.008;2022-10-16T06:00:09;101983.03;;;19.17;29.22
54870;BME280;40756;-37.950;145.008;2022-10-16T06:02:39;101984.67;;;18.88;28.90
54870;BME280;40756;-37.950;145.008;2022-10-16T06:05:09;101986.23;;;18.77;27.83
54870;BME280;40756;-37.950;145.008;2022-10-16T06:07:39;101984.55;;;18.71;28.70
54870;BME280;40756;-37.950;145.008;2022-10-16T06:10:09;101986.12;;;18.39;29.30
54870;BME280;40756;-37.950;145.008;2022-10-16T06:12:39;101986.28;;;19.19;29.45
54870;BME280;40756;-37.950;145.008;2022-10-16T06:15:09;101987.06;;;19.28;27.85
54870;BME280;40756;-37.950;145.008;2022-10-16T06:17:39;101989.09;;;18.33;29.32
54870;BME280;40756;-37.950;145.008;2022-10-16T06:20:09;101995.89;;;18.70;28.76
54870;BME280;40756;-37.950;145.008;2022-10-16T06:22:39;101994.46;;;18.53;29.48
54870;BME280;40756;-37.950;145.008;2022-10-16T06:25:08;101998.28;;;18.25;28.92
54870;BME280;40756;-37.950;145.008;2022-10-16T06:27:40;101995.49;;;17.78;29.64
54870;BME280;40756;-37.950;145.008;2022-10-16T06:30:10;102001.86;;;17.72;30.43
54870;BME280;40756;-37.950;145.008;2022-10-16T06:32:40;101999.95;;;18.09;30.72
54870;BME280;40756;-37.950;145.008;2022-10-16T06:35:10;102004.35;;;17.98;30.29
54870;BME280;40756;-37.950;145.008;2022-10-16T06:37:39;102011.57;;;18.03;30.36
54870;BME280;40756;-37.950;145.008;2022-10-16T06:40:09;102011.67;;;17.56;30.12
54870;BME280;40756;-37.950;145.008;2022-10-16T06:42:38;102016.73;;;17.66;30.79
54870;BME280;40756;-37.950;145.008;2022-10-16T06:45:09;102020.07;;;16.90;31.23
54870;BME280;40756;-37.950;145.008;2022-10-16T06:47:38;102019.81;;;17.44;31.00
54870;BME280;40756;-37.950;145.008;2022-10-16T06:50:08;102025.98;;;17.53;31.06
54870;BME280;40756;-37.950;145.008;2022-10-16T06:52:38;102028.64;;;17.57;31.12
54870;BME280;40756;-37.950;145.008;2022-10-16T06:55:08;102034.46;;;17.20;29.48
54870;BME280;40756;-37.950;145.008;2022-10-16T06:57:38;102033.49;;;17.95;29.14
54870;BME280;40756;-37.950;145.008;2022-10-16T07:00:08;102037.40;;;17.42;28.31
54870;BME280;40756;-37.950;145.008;2022-10-16T07:02:38;102035.27;;;17.55;28.76
54870;BME280;40756;-37.950;145.008;2022-10-16T07:05:08;102043.59;;;17.94;29.11
54870;BME280;40756;-37.950;145.008;2022-10-16T07:07:38;102045.28;;;17.62;29.33
54870;BME280;40756;-37.950;145.008;2022-10-16T07:10:08;102044.48;;;17.79;29.66
54870;BME280;40756;-37.950;145.008;2022-10-16T07:12:38;102041.97;;;17.65;29.39
54870;BME280;40756;-37.950;145.008;2022-10-16T07:15:08;102041.59;;;17.10;29.87
54870;BME280;40756;-37.950;145.008;2022-10-16T07:17:38;102041.63;;;17.54;30.45
54870;BME280;40756;-37.950;145.008;2022-10-16T07:20:08;102044.94;;;17.00;30.78
54870;BME280;40756;-37.950;145.008;2022-10-16T07:22:38;102044.85;;;17.23;30.52
54870;BME280;40756;-37.950;145.008;2022-10-16T07:25:08;102042.17;;;16.78;32.74
54870;BME280;40756;-37.950;145.008;2022-10-16T07:27:38;102043.98;;;17.08;31.69
54870;BME280;40756;-37.950;145.008;2022-10-16T07:30:08;102047.34;;;16.97;31.69
54870;BME280;40756;-37.950;145.008;2022-10-16T07:32:38;102050.60;;;17.22;32.44
54870;BME280;40756;-37.950;145.008;2022-10-16T07:35:08;102053.62;;;16.82;32.24
54870;BME280;40756;-37.950;145.008;2022-10-16T07:37:38;102057.05;;;17.13;33.10
54870;BME280;40756;-37.950;145.008;2022-10-16T07:40:09;102054.65;;;16.58;32.42
54870;BME280;40756;-37.950;145.008;2022-10-16T07:42:38;102049.84;;;16.65;32.00
54870;BME280;40756;-37.950;145.008;2022-10-16T07:45:08;102050.17;;;16.38;32.45
54870;BME280;40756;-37.950;145.008;2022-10-16T07:47:38;102048.26;;;16.48;32.22
54870;BME280;40756;-37.950;145.008;2022-10-16T07:50:08;102051.03;;;15.98;30.81
54870;BME280;40756;-37.950;145.008;2022-10-16T07:52:37;102049.46;;;15.37;33.26
54870;BME280;40756;-37.950;145.008;2022-10-16T07:55:08;102052.83;;;15.74;33.19
54870;BME280;40756;-37.950;145.008;2022-10-16T07:57:38;102051.83;;;15.91;32.98
54870;BME280;40756;-37.950;145.008;2022-10-16T08:00:08;102053.15;;;15.66;32.33
54870;BME280;40756;-37.950;145.008;2022-10-16T08:02:38;102055.80;;;15.87;33.46
54870;BME280;40756;-37.950;145.008;2022-10-16T08:05:08;102056.79;;;15.83;32.31
54870;BME280;40756;-37.950;145.008;2022-10-16T08:07:39;102055.92;;;15.85;32.87
54870;BME280;40756;-37.950;145.008;2022-10-16T08:10:13;102059.54;;;15.59;33.12
54870;BME280;40756;-37.950;145.008;2022-10-16T08:12:44;102064.80;;;15.36;33.84
54870;BME280;40756;-37.950;145.008;2022-10-16T08:15:14;102063.74;;;15.39;34.01
54870;BME280;40756;-37.950;145.008;2022-10-16T08:17:43;102069.47;;;15.46;34.19
54870;BME280;40756;-37.950;145.008;2022-10-16T08:20:13;102070.66;;;15.48;33.95
54870;BME280;40756;-37.950;145.008;2022-10-16T08:22:43;102073.66;;;15.58;34.20
54870;BME280;40756;-37.950;145.008;2022-10-16T08:25:13;102075.23;;;15.57;34.22
54870;BME280;40756;-37.950;145.008;2022-10-16T08:27:42;102075.93;;;15.29;35.07
54870;BME280;40756;-37.950;145.008;2022-10-16T08:30:12;102072.58;;;14.97;34.84
54870;BME280;40756;-37.950;145.008;2022-10-16T08:32:42;102075.38;;;14.73;34.21
54870;BME280;40756;-37.950;145.008;2022-10-16T08:35:13;102072.73;;;14.91;34.86
54870;BME280;40756;-37.950;145.008;2022-10-16T08:37:43;102074.87;;;14.96;34.30
54870;BME280;40756;-37.950;145.008;2022-10-16T08:40:18;102071.48;;;14.75;34.77
54870;BME280;40756;-37.950;145.008;2022-10-16T08:43:01;102073.29;;;14.50;34.60
54870;BME280;40756;-37.950;145.008;2022-10-16T08:45:42;102078.68;;;14.16;34.90
54870;BME280;40756;-37.950;145.008;2022-10-16T08:48:20;102077.61;;;14.88;34.57
54870;BME280;40756;-37.950;145.008;2022-10-16T08:50:54;102082.57;;;14.60;34.78
54870;BME280;40756;-37.950;145.008;2022-10-16T08:53:26;102085.96;;;14.90;34.19
54870;BME280;40756;-37.950;145.008;2022-10-16T08:55:57;102091.35;;;14.30;34.64
54870;BME280;40756;-37.950;145.008;2022-10-16T08:58:29;102093.98;;;14.54;35.27
54870;BME280;40756;-37.950;145.008;2022-10-16T09:01:02;102100.08;;;14.46;35.14
54870;BME280;40756;-37.950;145.008;2022-10-16T09:03:48;102099.86;;;14.44;35.08
54870;BME280;40756;-37.950;145.008;2022-10-16T09:06:28;102103.71;;;14.70;36.25
54870;BME280;40756;-37.950;145.008;2022-10-16T09:09:15;102108.95;;;14.61;36.58
54870;BME280;40756;-37.950;145.008;2022-10-16T09:11:53;102110.05;;;14.49;37.12
54870;BME280;40756;-37.950;145.008;2022-10-16T09:14:56;102110.88;;;14.56;37.11
54870;BME280;40756;-37.950;145.008;2022-10-16T09:17:39;102116.32;;;14.36;37.52
54870;BME280;40756;-37.950;145.008;2022-10-16T09:20:23;102119.66;;;14.61;37.98
54870;BME280;40756;-37.950;145.008;2022-10-16T09:23:10;102118.46;;;14.40;38.51
54870;BME280;40756;-37.950;145.008;2022-10-16T09:25:46;102121.55;;;14.02;38.72
54870;BME280;40756;-37.950;145.008;2022-10-16T09:28:16;102123.32;;;14.26;38.81
54870;BME280;40756;-37.950;145.008;2022-10-16T09:30:47;102125.34;;;14.25;39.34
54870;BME280;40756;-37.950;145.008;2022-10-16T09:33:19;102129.57;;;13.96;39.40
54870;BME280;40756;-37.950;145.008;2022-10-16T09:35:52;102132.59;;;14.04;39.48
54870;BME280;40756;-37.950;145.008;2022-10-16T09:38:26;102139.35;;;14.20;39.19
54870;BME280;40756;-37.950;145.008;2022-10-16T09:40:56;102142.42;;;14.42;39.74
54870;BME280;40756;-37.950;145.008;2022-10-16T09:43:28;102153.13;;;13.84;38.99
54870;BME280;40756;-37.950;145.008;2022-10-16T09:46:04;102158.17;;;13.99;39.30
54870;BME280;40756;-37.950;145.008;2022-10-16T09:48:39;102156.28;;;14.01;38.91
54870;BME280;40756;-37.950;145.008;2022-10-16T09:51:20;102154.55;;;14.12;38.92
54870;BME280;40756;-37.950;145.008;2022-10-16T09:53:56;102153.58;;;13.98;39.08
54870;BME280;40756;-37.950;145.008;2022-10-16T09:56:28;102154.67;;;14.01;39.12
54870;BME280;40756;-37.950;145.008;2022-10-16T09:59:00;102156.89;;;13.95;39.66
54870;BME280;40756;-37.950;145.008;2022-10-16T10:01:35;102155.64;;;13.51;39.36
54870;BME280;40756;-37.950;145.008;2022-10-16T10:04:07;102157.65;;;13.58;39.39
54870;BME280;40756;-37.950;145.008;2022-10-16T10:06:41;102161.63;;;13.65;39.31
54870;BME280;40756;-37.950;145.008;2022-10-16T10:09:22;102165.17;;;13.70;39.57
54870;BME280;40756;-37.950;145.008;2022-10-16T10:11:54;102170.93;;;13.68;39.93
54870;BME280;40756;-37.950;145.008;2022-10-16T10:14:30;102182.79;;;13.35;40.20
54870;BME280;40756;-37.950;145.008;2022-10-16T10:17:18;102185.29;;;13.40;40.05
54870;BME280;40756;-37.950;145.008;2022-10-16T10:19:52;102190.19;;;13.35;40.89
54870;BME280;40756;-37.950;145.008;2022-10-16T10:22:30;102193.43;;;13.17;40.33
54870;BME280;40756;-37.950;145.008;2022-10-16T10:25:16;102195.23;;;13.15;40.87
54870;BME280;40756;-37.950;145.008;2022-10-16T10:27:59;102197.16;;;13.10;41.49
54870;BME280;40756;-37.950;145.008;2022-10-16T10:30:37;102198.11;;;12.84;44.09
54870;BME280;40756;-37.950;145.008;2022-10-16T10:33:19;102198.08;;;12.75;43.55
54870;BME280;40756;-37.950;145.008;2022-10-16T10:35:56;102199.53;;;13.04;41.43
54870;BME280;40756;-37.950;145.008;2022-10-16T10:38:37;102203.79;;;13.19;41.09
54870;BME280;40756;-37.950;145.008;2022-10-16T10:41:19;102206.01;;;13.04;40.85
54870;BME280;40756;-37.950;145.008;2022-10-16T10:44:05;102206.70;;;13.07;40.54
54870;BME280;40756;-37.950;145.008;2022-10-16T10:46:45;102205.35;;;13.02;41.71
54870;BME280;40756;-37.950;145.008;2022-10-16T10:49:29;102206.48;;;12.87;42.09
54870;BME280;40756;-37.950;145.008;2022-10-16T10:52:18;102203.40;;;12.92;42.41
54870;BME280;40756;-37.950;145.008;2022-10-16T10:54:55;102204.75;;;12.92;42.83
54870;BME280;40756;-37.950;145.008;2022-10-16T10:57:32;102206.12;;;12.73;43.22
54870;BME280;40756;-37.950;145.008;2022-10-16T11:00:19;102206.63;;;12.44;43.50
54870;BME280;40756;-37.950;145.008;2022-10-16T11:02:54;102202.64;;;12.20;43.41
54870;BME280;40756;-37.950;145.008;2022-10-16T11:05:41;102201.31;;;12.32;43.89
54870;BME280;40756;-37.950;145.008;2022-10-16T11:08:17;102206.15;;;12.32;44.05
54870;BME280;40756;-37.950;145.008;2022-10-16T11:10:52;102208.90;;;12.23;44.24
54870;BME280;40756;-37.950;145.008;2022-10-16T11:13:30;102210.22;;;12.37;44.25
54870;BME280;40756;-37.950;145.008;2022-10-16T11:16:03;102211.32;;;12.14;44.07
54870;BME280;40756;-37.950;145.008;2022-10-16T11:18:46;102214.40;;;11.80;44.41
54870;BME280;40756;-37.950;145.008;2022-10-16T11:21:21;102218.34;;;11.98;44.23
54870;BME280;40756;-37.950;145.008;2022-10-16T11:23:56;102219.25;;;11.91;44.36
54870;BME280;40756;-37.950;145.008;2022-10-16T11:26:30;102220.27;;;11.69;44.61
54870;BME280;40756;-37.950;145.008;2022-10-16T11:29:05;102218.05;;;11.79;44.55
54870;BME280;40756;-37.950;145.008;2022-10-16T11:31:42;102219.50;;;12.04;44.95
54870;BME280;40756;-37.950;145.008;2022-10-16T11:34:22;102213.72;;;11.87;45.10
54870;BME280;40756;-37.950;145.008;2022-10-16T11:36:58;102211.42;;;11.59;45.75
54870;BME280;40756;-37.950;145.008;2022-10-16T11:39:31;102216.83;;;11.88;44.79
54870;BME280;40756;-37.950;145.008;2022-10-16T11:42:05;102217.14;;;11.51;44.77
54870;BME280;40756;-37.950;145.008;2022-10-16T11:44:48;102217.34;;;11.56;45.40
54870;BME280;40756;-37.950;145.008;2022-10-16T11:47:30;102214.85;;;11.32;45.51
54870;BME280;40756;-37.950;145.008;2022-10-16T11:50:22;102215.78;;;11.25;45.94
54870;BME280;40756;-37.950;145.008;2022-10-16T11:52:57;102215.02;;;11.36;46.32
54870;BME280;40756;-37.950;145.008;2022-10-16T11:55:34;102215.37;;;11.16;46.31
54870;BME280;40756;-37.950;145.008;2022-10-16T11:58:08;102214.32;;;11.30;46.03
54870;BME280;40756;-37.950;145.008;2022-10-16T12:00:47;102210.55;;;10.83;47.02
54870;BME280;40756;-37.950;145.008;2022-10-16T12:03:26;102208.52;;;11.16;47.37
54870;BME280;40756;-37.950;145.008;2022-10-16T12:06:13;102205.17;;;11.28;47.78
54870;BME280;40756;-37.950;145.008;2022-10-16T12:08:44;102200.24;;;11.31;48.34
54870;BME280;40756;-37.950;145.008;2022-10-16T12:11:34;102199.28;;;11.21;46.53
54870;BME280;40756;-37.950;145.008;2022-10-16T12:14:38;102197.03;;;11.29;46.33
54870;BME280;40756;-37.950;145.008;2022-10-16T12:17:27;102195.69;;;11.16;46.83
54870;BME280;40756;-37.950;145.008;2022-10-16T12:20:23;102194.62;;;11.23;47.68
54870;BME280;40756;-37.950;145.008;2022-10-16T12:23:00;102192.35;;;11.13;48.02
54870;BME280;40756;-37.950;145.008;2022-10-16T12:25:33;102191.44;;;11.31;48.12
54870;BME280;40756;-37.950;145.008;2022-10-16T12:28:06;102190.83;;;11.22;47.53
54870;BME280;40756;-37.950;145.008;2022-10-16T12:30:54;102191.12;;;10.91;47.71
54870;BME280;40756;-37.950;145.008;2022-10-16T12:33:26;102191.69;;;10.80;47.27
54870;BME280;40756;-37.950;145.008;2022-10-16T12:35:57;102187.05;;;10.96;47.45
54870;BME280;40756;-37.950;145.008;2022-10-16T12:38:29;102185.32;;;10.89;47.88
54870;BME280;40756;-37.950;145.008;2022-10-16T12:41:04;102185.09;;;10.90;47.82
54870;BME280;40756;-37.950;145.008;2022-10-16T12:43:40;102187.21;;;10.78;48.27
54870;BME280;40756;-37.950;145.008;2022-10-16T12:46:38;102184.02;;;10.73;47.97
54870;BME280;40756;-37.950;145.008;2022-10-16T12:49:28;102186.67;;;10.32;48.42
54870;BME280;40756;-37.950;145.008;2022-10-16T12:51:58;102188.64;;;10.61;48.59